createdAt,value
2023-01-07T00:02:41.005Z,1010.38
2023-01-07T00:05:40.948Z,1010.38
2023-01-07T00:08:40.936Z,1010.34
2023-01-07T00:11:40.946Z,1010.33
2023-01-07T00:14:40.942Z,1010.32
2023-01-07T00:17:40.941Z,1010.28
2023-01-07T00:20:40.945Z,1010.3
2023-01-07T00:23:40.953Z,1010.19
2023-01-07T00:26:40.959Z,1010.18
2023-01-07T00:29:40.951Z,1010.18
2023-01-07T00:32:40.941Z,1010.11
2023-01-07T00:35:40.944Z,1010.12
2023-01-07T00:38:40.946Z,1010.11
2023-01-07T00:41:40.957Z,1010.1
2023-01-07T00:44:40.945Z,1010.07
2023-01-07T00:47:40.938Z,1010.01
2023-01-07T00:50:40.951Z,1010.01
2023-01-07T00:53:40.935Z,1010
2023-01-07T00:56:40.942Z,1009.99
2023-01-07T00:59:40.941Z,1009.94
2023-01-07T01:02:41.028Z,1009.92
2023-01-07T01:05:40.932Z,1009.86
2023-01-07T01:08:40.945Z,1009.87
2023-01-07T01:11:40.945Z,1009.88
2023-01-07T01:14:40.933Z,1009.84
2023-01-07T01:17:40.952Z,1009.85
2023-01-07T01:20:40.937Z,1009.78
2023-01-07T01:23:40.945Z,1009.76
2023-01-07T01:26:40.934Z,1009.76
2023-01-07T01:29:40.935Z,1009.74
2023-01-07T01:32:40.943Z,1009.74
2023-01-07T01:35:40.935Z,1009.78
2023-01-07T01:38:41.006Z,1009.73
2023-01-07T01:41:40.934Z,1009.75
2023-01-07T01:44:40.947Z,1009.74
2023-01-07T01:47:40.934Z,1009.7
2023-01-07T01:50:40.938Z,1009.73
2023-01-07T01:53:40.944Z,1009.69
2023-01-07T01:56:40.934Z,1009.58
2023-01-07T01:59:40.943Z,1009.6
2023-01-07T02:02:41.035Z,1009.58
2023-01-07T02:05:40.933Z,1009.5
2023-01-07T02:08:40.947Z,1009.5
2023-01-07T02:11:40.938Z,1009.49
2023-01-07T02:14:40.936Z,1009.47
2023-01-07T02:17:40.931Z,1009.42
2023-01-07T02:20:40.968Z,1009.39
2023-01-07T02:23:40.967Z,1009.35
2023-01-07T02:26:40.965Z,1009.36
2023-01-07T02:29:40.967Z,1009.36
2023-01-07T02:32:40.965Z,1009.39
2023-01-07T02:35:40.968Z,1009.33
2023-01-07T02:38:40.964Z,1009.35
2023-01-07T02:41:40.965Z,1009.35
2023-01-07T02:44:40.968Z,1009.31
2023-01-07T02:47:40.969Z,1009.27
2023-01-07T02:50:40.968Z,1009.25
2023-01-07T02:53:40.967Z,1009.28
2023-01-07T02:56:40.965Z,1009.23
2023-01-07T02:59:40.964Z,1009.27
2023-01-07T03:02:40.973Z,1009.22
2023-01-07T03:05:40.985Z,1009.16
2023-01-07T03:08:40.976Z,1009.18
2023-01-07T03:11:40.966Z,1009.12
2023-01-07T03:14:40.975Z,1009.12
2023-01-07T03:17:40.980Z,1009.13
2023-01-07T03:20:40.972Z,1009.06
2023-01-07T03:23:40.984Z,1009.06
2023-01-07T03:26:40.987Z,1009.03
2023-01-07T03:29:40.979Z,1009.03
2023-01-07T03:32:40.982Z,1009.05
2023-01-07T03:35:40.977Z,1009.05
2023-01-07T03:38:40.975Z,1009.05
2023-01-07T03:41:40.984Z,1009.03
2023-01-07T03:44:40.973Z,1008.98
2023-01-07T03:47:40.971Z,1008.98
2023-01-07T03:50:40.974Z,1009
2023-01-07T03:53:40.996Z,1008.95
2023-01-07T03:56:40.976Z,1008.95
2023-01-07T03:59:40.975Z,1008.9
2023-01-07T04:02:40.976Z,1008.87
2023-01-07T04:05:40.978Z,1008.86
2023-01-07T04:08:40.983Z,1008.84
2023-01-07T04:11:40.986Z,1008.83
2023-01-07T04:14:40.983Z,1008.76
2023-01-07T04:17:40.997Z,1008.75
2023-01-07T04:20:40.982Z,1008.72
2023-01-07T04:23:40.986Z,1008.62
2023-01-07T04:26:40.983Z,1008.58
2023-01-07T04:29:40.980Z,1008.53
2023-01-07T04:32:40.975Z,1008.53
2023-01-07T04:35:40.980Z,1008.51
2023-01-07T04:38:40.993Z,1008.44
2023-01-07T04:41:40.988Z,1008.45
2023-01-07T04:44:40.990Z,1008.43
2023-01-07T04:47:40.988Z,1008.42
2023-01-07T04:50:40.982Z,1008.41
2023-01-07T04:53:40.989Z,1008.38
2023-01-07T04:56:40.991Z,1008.38
2023-01-07T04:59:40.992Z,1008.31
2023-01-07T05:02:40.991Z,1008.28
2023-01-07T05:05:40.991Z,1008.2
2023-01-07T05:08:40.983Z,1008.12
2023-01-07T05:11:40.996Z,1008.09
2023-01-07T05:14:40.987Z,1008.07
2023-01-07T05:17:40.994Z,1008
2023-01-07T05:20:40.983Z,1008.03
2023-01-07T05:23:40.996Z,1008
2023-01-07T05:26:40.990Z,1007.95
2023-01-07T05:29:40.991Z,1007.96
2023-01-07T05:32:40.993Z,1007.97
2023-01-07T05:35:41.001Z,1007.91
2023-01-07T05:38:40.984Z,1007.88
2023-01-07T05:41:40.992Z,1007.9
2023-01-07T05:44:40.984Z,1007.88
2023-01-07T05:47:41.018Z,1007.84
2023-01-07T05:50:40.999Z,1007.82
2023-01-07T05:53:41.003Z,1007.76
2023-01-07T05:56:40.996Z,1007.74
2023-01-07T05:59:40.993Z,1007.74
2023-01-07T06:02:40.997Z,1007.69
2023-01-07T06:05:40.998Z,1007.69
2023-01-07T06:08:40.990Z,1007.62
2023-01-07T06:11:40.998Z,1007.6
2023-01-07T06:14:40.991Z,1007.57
2023-01-07T06:17:40.994Z,1007.61
2023-01-07T06:20:40.989Z,1007.63
2023-01-07T06:23:40.989Z,1007.6
2023-01-07T06:26:40.995Z,1007.55
2023-01-07T06:29:40.993Z,1007.46
2023-01-07T06:32:40.990Z,1007.42
2023-01-07T06:35:40.991Z,1007.4
2023-01-07T06:38:40.988Z,1007.31
2023-01-07T06:41:40.998Z,1007.29
2023-01-07T06:44:41.463Z,1007.21
2023-01-07T06:47:41.460Z,1007.23
2023-01-07T06:50:41.571Z,1007.19
2023-01-07T06:53:41.470Z,1007.13
2023-01-07T06:56:41.462Z,1007.08
2023-01-07T06:59:41.449Z,1007.06
2023-01-07T07:02:41.512Z,1007.07
2023-01-07T07:05:41.453Z,1007.06
2023-01-07T07:08:41.463Z,1007.04
2023-01-07T07:11:41.445Z,1007.04
2023-01-07T07:14:41.457Z,1007.02
2023-01-07T07:17:41.468Z,1006.97
2023-01-07T07:20:41.476Z,1006.89
2023-01-07T07:23:41.443Z,1006.88
2023-01-07T07:26:41.454Z,1006.86
2023-01-07T07:29:41.459Z,1006.86
2023-01-07T07:32:41.453Z,1006.86
2023-01-07T07:35:41.460Z,1006.82
2023-01-07T07:38:41.467Z,1006.85
2023-01-07T07:41:41.449Z,1006.88
2023-01-07T07:44:41.444Z,1006.83
2023-01-07T07:47:41.454Z,1006.85
2023-01-07T07:50:41.462Z,1006.87
2023-01-07T07:53:41.463Z,1006.84
2023-01-07T07:56:41.462Z,1006.8
2023-01-07T07:59:41.453Z,1006.76
2023-01-07T08:02:41.458Z,1006.8
2023-01-07T08:05:41.468Z,1006.75
2023-01-07T08:08:41.457Z,1006.75
2023-01-07T08:11:41.454Z,1006.68
2023-01-07T08:14:43.762Z,1006.66
2023-01-07T08:17:41.463Z,1006.66
2023-01-07T08:20:41.460Z,1006.62
2023-01-07T08:23:41.447Z,1006.6
2023-01-07T08:26:41.463Z,1006.56
2023-01-07T08:29:41.453Z,1006.48
2023-01-07T08:32:41.459Z,1006.45
2023-01-07T08:35:41.464Z,1006.42
2023-01-07T08:38:41.454Z,1006.43
2023-01-07T08:41:41.455Z,1006.41
2023-01-07T08:44:41.447Z,1006.41
2023-01-07T08:47:41.467Z,1006.34
2023-01-07T08:50:41.474Z,1006.3
2023-01-07T08:53:41.456Z,1006.29
2023-01-07T08:56:41.457Z,1006.26
2023-01-07T08:59:41.537Z,1006.22
2023-01-07T09:02:41.573Z,1006.2
2023-01-07T09:05:41.540Z,1006.14
2023-01-07T09:08:41.562Z,1006.17
2023-01-07T09:11:41.563Z,1006.12
2023-01-07T09:14:41.556Z,1006.09
2023-01-07T09:17:41.565Z,1006.07
2023-01-07T09:20:41.536Z,1006.06
2023-01-07T09:23:41.554Z,1006.05
2023-01-07T09:26:41.551Z,1006.03
2023-01-07T09:29:41.547Z,1006.03
2023-01-07T09:32:41.553Z,1006.01
2023-01-07T09:35:41.543Z,1005.98
2023-01-07T09:38:41.545Z,1005.93
2023-01-07T09:41:41.555Z,1005.92
2023-01-07T09:44:41.550Z,1005.89
2023-01-07T09:47:41.548Z,1005.86
2023-01-07T09:50:41.537Z,1005.84
2023-01-07T09:53:41.557Z,1005.84
2023-01-07T09:56:41.551Z,1005.79
2023-01-07T09:59:41.538Z,1005.77
2023-01-07T10:02:41.619Z,1005.82
2023-01-07T10:05:41.548Z,1005.73
2023-01-07T10:08:41.545Z,1005.71
2023-01-07T10:11:43.443Z,1005.67
2023-01-07T10:14:41.557Z,1005.59
2023-01-07T10:17:41.568Z,1005.53
2023-01-07T10:20:41.551Z,1005.55
2023-01-07T10:23:41.559Z,1005.51
2023-01-07T10:26:41.561Z,1005.53
2023-01-07T10:29:41.565Z,1005.51
2023-01-07T10:32:41.565Z,1005.47
2023-01-07T10:35:41.552Z,1005.46
2023-01-07T10:38:41.562Z,1005.42
2023-01-07T10:41:41.556Z,1005.28
2023-01-07T10:44:41.563Z,1005.2
2023-01-07T10:47:41.561Z,1005.15
2023-01-07T10:50:41.549Z,1005.02
2023-01-07T10:53:41.562Z,1004.94
2023-01-07T10:56:41.560Z,1004.92
2023-01-07T10:59:41.587Z,1004.92
2023-01-07T11:02:41.612Z,1004.83
2023-01-07T11:05:41.553Z,1004.77
2023-01-07T11:08:41.555Z,1004.75
2023-01-07T11:11:41.564Z,1004.75
2023-01-07T11:14:41.570Z,1004.71
2023-01-07T11:17:41.577Z,1004.7
2023-01-07T11:20:41.553Z,1004.62
2023-01-07T11:23:43.832Z,1004.57
2023-01-07T11:26:41.558Z,1004.49
2023-01-07T11:29:41.568Z,1004.44
2023-01-07T11:32:41.552Z,1004.35
2023-01-07T11:35:41.584Z,1004.28
2023-01-07T11:38:41.559Z,1004.19
2023-01-07T11:41:41.561Z,1004.12
2023-01-07T11:44:41.558Z,1004.05
2023-01-07T11:47:41.578Z,1003.98
2023-01-07T11:50:41.565Z,1003.95
2023-01-07T11:53:41.562Z,1003.93
2023-01-07T11:56:41.564Z,1003.85
2023-01-07T11:59:41.569Z,1003.79
2023-01-07T12:02:41.593Z,1003.78
2023-01-07T12:05:41.563Z,1003.7
2023-01-07T12:08:41.569Z,1003.65
2023-01-07T12:11:41.566Z,1003.61
2023-01-07T12:14:41.571Z,1003.51
2023-01-07T12:17:41.575Z,1003.46
2023-01-07T12:20:41.584Z,1003.41
2023-01-07T12:23:41.618Z,1003.4
2023-01-07T12:26:41.567Z,1003.34
2023-01-07T12:29:41.588Z,1003.3
2023-01-07T12:32:41.573Z,1003.27
2023-01-07T12:35:41.573Z,1003.25
2023-01-07T12:38:41.603Z,1003.21
2023-01-07T12:41:41.635Z,1003.18
2023-01-07T12:44:41.591Z,1003.11
2023-01-07T12:47:41.573Z,1003.04
2023-01-07T12:50:41.597Z,1003.03
2023-01-07T12:53:41.581Z,1003.04
2023-01-07T12:56:41.578Z,1002.96
2023-01-07T12:59:45.193Z,1002.96
2023-01-07T13:02:41.608Z,1002.95
2023-01-07T13:05:41.587Z,1002.87
2023-01-07T13:08:41.577Z,1002.76
2023-01-07T13:11:41.652Z,1002.76
2023-01-07T13:14:41.577Z,1002.75
2023-01-07T13:17:41.585Z,1002.73
2023-01-07T13:20:41.664Z,1002.74
2023-01-07T13:23:41.575Z,1002.71
2023-01-07T13:26:41.593Z,1002.6
2023-01-07T13:29:41.603Z,1002.56
2023-01-07T13:32:41.587Z,1002.5
2023-01-07T13:35:41.616Z,1002.46
2023-01-07T13:38:41.589Z,1002.48
2023-01-07T13:41:41.621Z,1002.45
2023-01-07T13:44:41.594Z,1002.48
2023-01-07T13:47:41.576Z,1002.48
2023-01-07T13:50:41.598Z,1002.44
2023-01-07T13:53:41.582Z,1002.44
2023-01-07T13:56:41.587Z,1002.42
2023-01-07T13:59:41.588Z,1002.39
2023-01-07T14:02:41.679Z,1002.39
2023-01-07T14:05:41.586Z,1002.37
2023-01-07T14:08:41.577Z,1002.4
2023-01-07T14:11:41.585Z,1002.39
2023-01-07T14:14:41.586Z,1002.39
2023-01-07T14:17:41.596Z,1002.38
2023-01-07T14:20:41.594Z,1002.33
2023-01-07T14:23:41.583Z,1002.3
2023-01-07T14:26:41.607Z,1002.31
2023-01-07T14:29:41.616Z,1002.27
2023-01-07T14:32:41.598Z,1002.26
2023-01-07T14:35:41.604Z,1002.26
2023-01-07T14:38:41.596Z,1002.21
2023-01-07T14:41:41.596Z,1002.19
2023-01-07T14:44:41.599Z,1002.16
2023-01-07T14:47:41.606Z,1002.1
2023-01-07T14:50:41.596Z,1002.06
2023-01-07T14:53:41.595Z,1002.03
2023-01-07T14:56:41.597Z,1001.97
2023-01-07T14:59:41.600Z,1001.97
2023-01-07T15:02:41.619Z,1001.95
2023-01-07T15:05:41.606Z,1001.91
2023-01-07T15:08:41.599Z,1001.91
2023-01-07T15:11:41.597Z,1001.86
2023-01-07T15:14:41.595Z,1001.9
2023-01-07T15:17:41.605Z,1001.9
2023-01-07T15:20:41.594Z,1001.84
2023-01-07T15:23:41.596Z,1001.85
2023-01-07T15:26:41.598Z,1001.85
2023-01-07T15:29:41.618Z,1001.89
2023-01-07T15:32:41.591Z,1001.88
2023-01-07T15:35:41.601Z,1001.89
2023-01-07T15:38:41.615Z,1001.91
2023-01-07T15:41:41.601Z,1001.92
2023-01-07T15:44:41.603Z,1001.87
2023-01-07T15:47:41.847Z,1001.82
2023-01-07T15:50:41.599Z,1001.81
2023-01-07T15:53:41.600Z,1001.83
2023-01-07T15:56:41.597Z,1001.85
2023-01-07T15:59:41.599Z,1001.83
2023-01-07T16:02:42.707Z,1001.76
2023-01-07T16:05:41.623Z,1001.75
2023-01-07T16:08:41.600Z,1001.8
2023-01-07T16:11:41.619Z,1001.78
2023-01-07T16:14:41.609Z,1001.79
2023-01-07T16:17:41.612Z,1001.81
2023-01-07T16:20:41.607Z,1001.79
2023-01-07T16:23:41.627Z,1001.77
2023-01-07T16:26:41.603Z,1001.72
2023-01-07T16:29:41.622Z,1001.66
2023-01-07T16:32:41.607Z,1001.63
2023-01-07T16:35:41.620Z,1001.61
2023-01-07T16:38:41.631Z,1001.54
2023-01-07T16:41:41.625Z,1001.48
2023-01-07T16:44:41.606Z,1001.43
2023-01-07T16:47:41.609Z,1001.46
2023-01-07T16:50:41.629Z,1001.41
2023-01-07T16:53:41.615Z,1001.31
2023-01-07T16:56:41.607Z,1001.36
2023-01-07T16:59:41.607Z,1001.4
2023-01-07T17:02:41.626Z,1001.36
2023-01-07T17:05:41.616Z,1001.29
2023-01-07T17:08:41.635Z,1001.24
2023-01-07T17:11:41.634Z,1001.21
2023-01-07T17:14:41.626Z,1001.23
2023-01-07T17:17:41.634Z,1001.17
2023-01-07T17:20:41.617Z,1001.15
2023-01-07T17:23:41.631Z,1001.11
2023-01-07T17:26:41.628Z,1001.11
2023-01-07T17:29:41.621Z,1001.02
2023-01-07T17:32:41.639Z,1000.98
2023-01-07T17:35:41.639Z,1000.95
2023-01-07T17:38:41.635Z,1000.89
2023-01-07T17:41:41.647Z,1000.91
2023-01-07T17:44:41.632Z,1000.94
2023-01-07T17:47:41.628Z,1000.93
2023-01-07T17:50:41.654Z,1000.98
2023-01-07T17:53:41.637Z,1000.89
2023-01-07T17:56:41.637Z,1000.93
2023-01-07T17:59:41.629Z,1000.95
2023-01-07T18:02:41.659Z,1001.01
2023-01-07T18:05:41.627Z,1000.99
2023-01-07T18:08:41.641Z,1000.98
2023-01-07T18:11:41.707Z,1000.92
2023-01-07T18:14:41.630Z,1000.92
2023-01-07T18:17:41.633Z,1000.94
2023-01-07T18:20:41.639Z,1000.83
2023-01-07T18:23:41.638Z,1000.82
2023-01-07T18:26:41.638Z,1000.78
2023-01-07T18:29:41.640Z,1000.77
2023-01-07T18:32:41.639Z,1000.82
2023-01-07T18:35:41.649Z,1000.82
2023-01-07T18:38:41.646Z,1000.84
2023-01-07T18:41:41.631Z,1000.78
2023-01-07T18:44:41.777Z,1000.83
2023-01-07T18:47:41.635Z,1000.82
2023-01-07T18:50:41.631Z,1000.77
2023-01-07T18:53:41.635Z,1000.73
2023-01-07T18:56:41.642Z,1000.67
2023-01-07T18:59:41.630Z,1000.61
2023-01-07T19:02:41.636Z,1000.59
2023-01-07T19:05:41.640Z,1000.56
2023-01-07T19:08:41.629Z,1000.57
2023-01-07T19:11:41.710Z,1000.55
2023-01-07T19:14:41.689Z,1000.56
2023-01-07T19:17:41.674Z,1000.61
2023-01-07T19:20:41.676Z,1000.63
2023-01-07T19:23:41.672Z,1000.54
2023-01-07T19:26:41.675Z,1000.48
2023-01-07T19:29:41.680Z,1000.47
2023-01-07T19:32:41.670Z,1000.43
2023-01-07T19:35:41.681Z,1000.4
2023-01-07T19:38:41.726Z,1000.41
2023-01-07T19:41:41.687Z,1000.34
2023-01-07T19:44:41.685Z,1000.34
2023-01-07T19:47:41.675Z,1000.33
2023-01-07T19:50:41.672Z,1000.32
2023-01-07T19:53:41.677Z,1000.32
2023-01-07T19:56:41.686Z,1000.33
2023-01-07T19:59:41.679Z,1000.32
2023-01-07T20:02:41.715Z,1000.3
2023-01-07T20:05:41.675Z,1000.29
2023-01-07T20:08:41.712Z,1000.29
2023-01-07T20:11:41.686Z,1000.28
2023-01-07T20:14:41.673Z,1000.34
2023-01-07T20:17:41.677Z,1000.31
2023-01-07T20:20:41.685Z,1000.28
2023-01-07T20:23:41.683Z,1000.26
2023-01-07T20:26:41.692Z,1000.27
2023-01-07T20:29:41.676Z,1000.14
2023-01-07T20:32:41.676Z,1000.11
2023-01-07T20:35:41.694Z,1000.08
2023-01-07T20:38:41.679Z,1000.12
2023-01-07T20:41:41.687Z,1000.2
2023-01-07T20:44:41.678Z,1000.2
2023-01-07T20:47:41.682Z,1000.24
2023-01-07T20:50:41.682Z,1000.21
2023-01-07T20:53:41.682Z,1000.22
2023-01-07T20:56:41.699Z,1000.16
2023-01-07T20:59:41.684Z,1000.16
2023-01-07T21:02:41.746Z,1000.11
2023-01-07T21:05:41.683Z,1000
2023-01-07T21:08:41.712Z,999.89
2023-01-07T21:11:41.678Z,999.94
2023-01-07T21:14:41.681Z,999.86
2023-01-07T21:17:41.684Z,999.82
2023-01-07T21:20:41.676Z,999.8
2023-01-07T21:23:41.732Z,999.86
2023-01-07T21:26:41.682Z,999.84
2023-01-07T21:29:41.690Z,999.86
2023-01-07T21:32:41.690Z,999.9
2023-01-07T21:35:41.687Z,999.93
2023-01-07T21:38:41.685Z,999.93
2023-01-07T21:41:41.684Z,999.89
2023-01-07T21:44:41.686Z,999.87
2023-01-07T21:47:41.677Z,999.77
2023-01-07T21:50:41.683Z,999.69
2023-01-07T21:53:41.674Z,999.62
2023-01-07T21:56:41.678Z,999.48
2023-01-07T21:59:41.679Z,999.42
2023-01-07T22:02:41.687Z,999.42
2023-01-07T22:05:41.689Z,999.38
2023-01-07T22:08:41.674Z,999.39
2023-01-07T22:11:41.694Z,999.45
2023-01-07T22:14:41.694Z,999.42
2023-01-07T22:17:41.687Z,999.47
2023-01-07T22:20:41.673Z,999.51
2023-01-07T22:23:41.684Z,999.52
2023-01-07T22:26:41.691Z,999.57
2023-01-07T22:29:41.687Z,999.58
2023-01-07T22:32:41.755Z,999.55
2023-01-07T22:35:41.707Z,999.56
2023-01-07T22:38:41.688Z,999.56
2023-01-07T22:41:41.710Z,999.57
2023-01-07T22:44:41.688Z,999.52
2023-01-07T22:47:41.697Z,999.51
2023-01-07T22:50:41.682Z,999.49
2023-01-07T22:53:41.720Z,999.52
2023-01-07T22:56:41.705Z,999.5
2023-01-07T22:59:41.693Z,999.51
2023-01-07T23:02:41.694Z,999.57
2023-01-07T23:05:41.688Z,999.57
2023-01-07T23:08:41.678Z,999.48
2023-01-07T23:11:41.688Z,999.38
2023-01-07T23:14:41.692Z,999.35
2023-01-07T23:17:41.691Z,999.3
2023-01-07T23:20:41.696Z,999.33
2023-01-07T23:23:41.721Z,999.28
2023-01-07T23:26:41.697Z,999.29
2023-01-07T23:29:41.697Z,999.24
2023-01-07T23:32:41.686Z,999.18
2023-01-07T23:35:41.689Z,999.13
2023-01-07T23:38:41.698Z,999.04
2023-01-07T23:41:41.690Z,999.02
2023-01-07T23:44:41.700Z,998.9
2023-01-07T23:47:41.692Z,998.9
2023-01-07T23:50:41.701Z,998.82
2023-01-07T23:53:41.712Z,998.79
2023-01-07T23:56:41.692Z,998.76
2023-01-07T23:59:41.692Z,998.73
